Time;durP1;ratioP1;P1;durP2;ratioP2;P2;SDS_P1;SDS_P2;PMS_P1;PMS_P2;Temp;Humidity;BMP_temperature;BMP_pressure;BME280_temperature;BME280_humidity;BME280_pressure;Samples;Min_cycle;Max_cycle;Signal;HPM_P1;HPM_P2
2023/01/28 00:00:13;;;;;;;6.50;3.83;;;;;;;-0.30;100.00;99665.25;5080904;28;20048;-78
2023/01/28 00:02:41;;;;;;;6.63;3.53;;;;;;;-0.37;100.00;99640.78;5079777;28;20510;-79
2023/01/28 00:05:08;;;;;;;8.80;4.13;;;;;;;-0.45;100.00;99633.28;5088421;28;20044;-78
2023/01/28 00:07:34;;;;;;;6.60;3.33;;;;;;;-0.47;100.00;99640.53;5083863;28;20055;-79
2023/01/28 00:10:01;;;;;;;7.18;3.92;;;;;;;-0.44;100.00;99655.50;5083620;28;20048;-78
2023/01/28 00:12:28;;;;;;;5.82;3.47;;;;;;;-0.39;100.00;99662.28;5085038;28;20048;-78
2023/01/28 00:14:54;;;;;;;6.10;3.50;;;;;;;-0.24;100.00;99675.53;5074618;28;20051;-78
2023/01/28 00:17:21;;;;;;;6.45;3.45;;;;;;;-0.17;100.00;99681.34;5089462;28;20048;-79
2023/01/28 00:19:49;;;;;;;6.35;3.38;;;;;;;-0.25;100.00;99673.84;5081256;28;20079;-79
2023/01/28 00:22:15;;;;;;;6.05;3.40;;;;;;;-0.20;100.00;99667.25;5080417;28;20052;-79
2023/01/28 00:24:42;;;;;;;3.92;2.70;;;;;;;-0.15;100.00;99669.59;5087175;28;20044;-78
2023/01/28 00:27:09;;;;;;;6.85;3.45;;;;;;;-0.43;100.00;99663.44;5084343;28;20071;-79
2023/01/28 00:29:35;;;;;;;6.85;3.42;;;;;;;-0.14;100.00;99673.97;5073387;28;20083;-78
2023/01/28 00:32:02;;;;;;;5.03;3.70;;;;;;;-0.22;100.00;99653.09;5081674;28;20050;-78
2023/01/28 00:34:28;;;;;;;5.55;3.17;;;;;;;-0.27;100.00;99638.34;5073528;28;20047;-78
2023/01/28 00:36:57;;;;;;;6.40;3.35;;;;;;;-0.38;100.00;99637.28;5081589;28;20050;-78
2023/01/28 00:39:24;;;;;;;4.65;3.08;;;;;;;-0.47;100.00;99635.19;5086186;28;20538;-78
2023/01/28 00:41:51;;;;;;;5.60;3.00;;;;;;;-0.34;100.00;99653.09;5082725;28;20052;-78
2023/01/28 00:44:17;;;;;;;6.75;2.90;;;;;;;-0.30;100.00;99651.91;5090176;28;20050;-78
2023/01/28 00:46:44;;;;;;;6.28;3.03;;;;;;;-0.43;100.00;99638.53;5090652;28;20503;-79
2023/01/28 00:49:10;;;;;;;6.13;2.88;;;;;;;-0.28;100.00;99663.38;5088804;28;20041;-79
2023/01/28 00:51:37;;;;;;;5.57;2.88;;;;;;;-0.37;100.00;99635.44;5081307;28;20487;-78
2023/01/28 00:54:06;;;;;;;5.20;3.03;;;;;;;-0.30;100.00;99658.13;5091781;28;20092;-78
2023/01/28 00:56:32;;;;;;;5.28;3.38;;;;;;;-0.22;100.00;99657.59;5092870;28;20050;-78
2023/01/28 00:58:59;;;;;;;4.60;2.90;;;;;;;-0.38;100.00;99629.25;5093639;28;20052;-78
2023/01/28 01:01:28;;;;;;;5.35;2.90;;;;;;;-0.36;100.00;99640.69;5094752;28;20126;-79
2023/01/28 01:04:01;;;;;;;4.55;2.80;;;;;;;-0.41;100.00;99632.09;5091406;28;20066;-78
2023/01/28 01:06:29;;;;;;;5.45;3.00;;;;;;;-0.41;100.00;99626.75;5083532;28;20051;-79
2023/01/28 01:08:55;;;;;;;6.93;3.25;;;;;;;-0.39;100.00;99637.38;5085861;28;20054;-78
2023/01/28 01:11:23;;;;;;;5.70;3.20;;;;;;;-0.40;100.00;99647.19;5093401;28;20055;-79
2023/01/28 01:13:51;;;;;;;5.90;2.97;;;;;;;-0.29;100.00;99643.78;5087872;28;20051;-78
2023/01/28 01:16:18;;;;;;;5.10;3.22;;;;;;;-0.17;100.00;99665.31;5090787;28;20101;-78
2023/01/28 01:18:45;;;;;;;4.30;2.70;;;;;;;-0.40;100.00;99641.84;5092486;28;20070;-79
2023/01/28 01:21:14;;;;;;;4.07;2.85;;;;;;;-0.24;100.00;99651.50;5094251;28;20056;-79
2023/01/28 01:23:40;;;;;;;4.68;2.58;;;;;;;-0.28;100.00;99653.53;5093640;28;20054;-79
2023/01/28 01:26:07;;;;;;;6.97;2.92;;;;;;;-0.31;100.00;99639.53;5093025;28;20044;-79
2023/01/28 01:28:35;;;;;;;3.70;2.95;;;;;;;-0.27;100.00;99667.72;5093562;28;20056;-78
2023/01/28 01:31:04;;;;;;;4.07;2.45;;;;;;;-0.50;100.00;99651.44;5083287;28;20055;-79
2023/01/28 01:33:31;;;;;;;5.93;2.75;;;;;;;-0.37;100.00;99681.72;5082144;28;20163;-78
2023/01/28 01:35:59;;;;;;;5.22;2.88;;;;;;;-0.42;100.00;99669.63;5094002;28;20044;-79
2023/01/28 01:38:25;;;;;;;5.38;2.67;;;;;;;-0.23;100.00;99677.25;5094111;28;20048;-79
2023/01/28 01:40:52;;;;;;;4.25;2.70;;;;;;;-0.24;100.00;99684.44;5091778;28;20052;-78
2023/01/28 01:43:21;;;;;;;6.57;3.13;;;;;;;-0.25;100.00;99673.84;5093203;28;20055;-78
2023/01/28 01:45:54;;;;;;;5.28;2.70;;;;;;;-0.38;100.00;99664.00;5092635;28;20048;-78
2023/01/28 01:48:25;;;;;;;4.95;3.28;;;;;;;-0.51;100.00;99644.41;5089601;28;20044;-79
2023/01/28 01:50:57;;;;;;;5.10;3.45;;;;;;;-0.40;100.00;99673.91;5091674;28;20052;-79
2023/01/28 01:53:26;;;;;;;3.83;2.60;;;;;;;-0.43;100.00;99639.38;5093254;28;20240;-79
2023/01/28 01:55:58;;;;;;;6.90;3.20;;;;;;;-0.23;100.00;99658.56;5093710;28;20376;-78
2023/01/28 01:58:27;;;;;;;4.95;3.00;;;;;;;-0.38;100.00;99645.28;5092060;28;20604;-78
2023/01/28 02:00:56;;;;;;;;;;;;;;;-0.23;100.00;99672.75;5090162;28;20048;-79
2023/01/28 02:03:28;;;;;;;4.50;2.85;;;;;;;-0.22;100.00;99676.31;5086988;28;19927;-79
2023/01/28 02:05:55;;;;;;;6.30;2.72;;;;;;;-0.34;100.00;99678.00;5077081;28;20062;-78
2023/01/28 02:08:22;;;;;;;3.45;2.33;;;;;;;-0.41;100.00;99657.97;5082425;28;20467;-79
2023/01/28 02:10:52;;;;;;;6.43;3.00;;;;;;;-0.43;100.00;99675.94;5080676;28;20043;-78
2023/01/28 02:13:20;;;;;;;4.43;2.63;;;;;;;-0.50;100.00;99654.09;5091421;28;20046;-79
2023/01/28 02:15:48;;;;;;;5.05;3.05;;;;;;;-0.44;100.00;99652.84;5091215;28;20472;-79
2023/01/28 02:18:16;;;;;;;7.07;2.97;;;;;;;-0.39;100.00;99672.09;5082067;28;20079;-78
2023/01/28 02:21:02;;;;;;;6.68;3.25;;;;;;;-0.39;100.00;99654.25;5087250;28;20047;-78
2023/01/28 02:23:48;;;;;;;5.57;3.15;;;;;;;-0.25;100.00;99687.22;5089005;28;20052;-79
2023/01/28 02:26:31;;;;;;;5.80;3.35;;;;;;;-0.35;100.00;99665.56;5086315;28;20417;-79
2023/01/28 02:29:05;;;;;;;5.05;2.95;;;;;;;-0.35;100.00;99689.63;5088272;28;20044;-79
2023/01/28 02:31:38;;;;;;;6.03;3.70;;;;;;;-0.33;100.00;99676.16;5085647;28;20411;-79
2023/01/28 02:34:11;;;;;;;5.60;3.40;;;;;;;-0.37;100.00;99676.38;5082674;28;20054;-79
2023/01/28 02:36:43;;;;;;;4.78;2.85;;;;;;;-0.25;100.00;99685.38;5077711;28;20076;-78
2023/01/28 02:39:18;;;;;;;5.88;3.42;;;;;;;-0.40;100.00;99676.56;5090269;28;20468;-78
2023/01/28 02:41:50;;;;;;;5.40;3.58;;;;;;;-0.34;100.00;99661.09;5084988;28;20444;-78
2023/01/28 02:44:18;;;;;;;5.55;3.00;;;;;;;-0.25;100.00;99688.06;5091865;28;20047;-78
2023/01/28 02:49:31;;;;;;;5.97;3.53;;;;;;;-0.37;100.00;99678.19;5089192;28;20055;-79
2023/01/28 02:52:13;;;;;;;7.30;3.70;;;;;;;-0.41;100.00;99679.34;5092217;28;20048;-78
2023/01/28 02:54:47;;;;;;;6.50;3.78;;;;;;;-0.32;100.00;99692.09;5092513;28;20054;-78
2023/01/28 02:57:24;;;;;;;5.75;3.50;;;;;;;-0.40;100.00;99649.84;5092800;28;20131;-79
2023/01/28 03:00:01;;;;;;;5.70;3.20;;;;;;;-0.32;100.00;99692.09;5091176;28;20058;-79
2023/01/28 03:02:34;;;;;;;4.88;2.88;;;;;;;-0.40;100.00;99689.94;5078576;28;20059;-79
2023/01/28 03:05:05;;;;;;;5.68;3.50;;;;;;;-0.50;100.00;99675.47;5084387;28;20048;-79
2023/01/28 03:07:35;;;;;;;6.97;3.60;;;;;;;-0.55;100.00;99677.59;5092165;28;20052;-79
2023/01/28 03:10:05;;;;;;;6.70;3.33;;;;;;;-0.46;100.00;99678.81;5092673;28;20043;-79
2023/01/28 03:37:43;;;;;;;5.88;3.58;;;;;;;-0.31;100.00;99698.31;5086588;28;20510;-78
2023/01/28 03:40:11;;;;;;;7.43;3.92;;;;;;;-0.21;100.00;99705.59;5083737;28;20044;-79
2023/01/28 03:42:37;;;;;;;6.90;4.00;;;;;;;-0.34;100.00;99686.00;5084604;28;20055;-78
2023/01/28 03:45:06;;;;;;;5.13;3.58;;;;;;;-0.27;100.00;99681.09;5090100;28;20502;-78
2023/01/28 03:47:34;;;;;;;8.65;3.90;;;;;;;-0.20;100.00;99704.66;5091234;28;20048;-78
2023/01/28 03:50:01;;;;;;;7.07;4.00;;;;;;;-0.31;100.00;99690.28;5084460;28;20430;-79
2023/01/28 03:52:29;;;;;;;8.88;4.05;;;;;;;-0.27;100.00;99713.16;5089266;28;20048;-78
2023/01/28 03:54:56;;;;;;;8.02;3.75;;;;;;;-0.32;100.00;99696.59;5091558;28;20055;-79
2023/01/28 03:57:24;;;;;;;5.55;3.20;;;;;;;-0.25;100.00;99698.75;5091419;28;20040;-79
2023/01/28 03:59:51;;;;;;;7.75;4.68;;;;;;;-0.21;100.00;99700.25;5089964;28;20048;-79
2023/01/28 04:02:19;;;;;;;10.10;3.95;;;;;;;-0.35;100.00;99684.28;5090444;28;20052;-78
2023/01/28 04:04:48;;;;;;;5.93;3.72;;;;;;;-0.26;100.00;99702.38;5088728;28;20055;-78
2023/01/28 04:07:15;;;;;;;5.22;3.10;;;;;;;-0.28;100.00;99703.44;5085206;28;20056;-78
2023/01/28 04:09:43;;;;;;;7.60;4.28;;;;;;;-0.27;100.00;99710.47;5091287;28;20502;-78
2023/01/28 04:12:10;;;;;;;4.95;3.53;;;;;;;-0.21;100.00;99713.63;5090403;28;20048;-79
2023/01/28 04:14:38;;;;;;;8.63;4.25;;;;;;;-0.33;100.00;99706.44;5083860;28;20411;-78
2023/01/28 04:17:06;;;;;;;7.32;4.15;;;;;;;-0.32;100.00;99691.25;5079690;28;20213;-79
2023/01/28 04:19:35;;;;;;;6.05;3.90;;;;;;;-0.42;100.00;99683.84;5087877;28;20131;-78
2023/01/28 04:22:04;;;;;;;6.88;3.72;;;;;;;-0.27;100.00;99713.16;5088972;28;20083;-78
2023/01/28 04:24:31;;;;;;;6.65;3.88;;;;;;;-0.46;100.00;99692.16;5073619;28;20056;-79
2023/01/28 04:26:57;;;;;;;6.32;3.85;;;;;;;-0.38;100.00;99703.19;5091930;28;20502;-79
2023/01/28 04:29:24;;;;;;;7.07;3.85;;;;;;;-0.28;100.00;99703.44;5078770;28;20048;-79
2023/01/28 04:31:51;;;;;;;5.07;3.47;;;;;;;-0.24;100.00;99726.31;5086246;28;20052;-79
2023/01/28 04:34:19;;;;;;;7.18;4.32;;;;;;;-0.28;100.00;99712.31;5077889;28;20125;-78
2023/01/28 04:36:45;;;;;;;8.50;4.20;;;;;;;-0.30;100.00;99718.69;5092388;28;20085;-79
2023/01/28 04:39:13;;;;;;;7.55;4.43;;;;;;;-0.34;100.00;99712.72;5087411;28;20048;-79
2023/01/28 04:41:40;;;;;;;9.43;4.32;;;;;;;-0.28;100.00;99732.84;5082387;28;20051;-79
2023/01/28 04:44:07;;;;;;;8.43;5.13;;;;;;;-0.28;100.00;99717.66;5081847;28;20059;-78
2023/01/28 04:46:33;;;;;;;7.70;4.72;;;;;;;-0.18;100.00;99741.97;5083880;28;20062;-79
2023/01/28 04:49:00;;;;;;;10.00;5.28;;;;;;;-0.39;100.00;99715.69;5092479;28;20479;-78
2023/01/28 04:51:27;;;;;;;7.05;4.10;;;;;;;-0.36;100.00;99715.50;5094949;28;20059;-79
2023/01/28 04:53:53;;;;;;;7.70;4.28;;;;;;;-0.31;100.00;99725.88;5094769;28;20055;-79
2023/01/28 04:56:21;;;;;;;7.85;4.60;;;;;;;-0.42;100.00;99710.56;5093336;28;20055;-78
2023/01/28 04:58:48;;;;;;;8.90;4.38;;;;;;;-0.48;100.00;99715.44;5075246;28;20063;-79
2023/01/28 05:01:14;;;;;;;8.27;3.83;;;;;;;-0.45;100.00;99715.22;5074643;28;20481;-78
2023/01/28 05:03:41;;;;;;;8.32;4.63;;;;;;;-0.17;100.00;99764.19;5081978;28;20043;-78
2023/01/28 05:06:09;;;;;;;6.93;4.95;;;;;;;-0.46;100.00;99718.88;5088178;28;20047;-78
2023/01/28 05:08:35;;;;;;;7.72;4.43;;;;;;;-0.43;100.00;99732.88;5094542;28;20087;-78
2023/01/28 05:11:02;;;;;;;8.68;4.65;;;;;;;-0.26;100.00;99741.59;5093947;28;20067;-78
2023/01/28 05:13:29;;;;;;;6.45;4.30;;;;;;;-0.39;100.00;99718.38;5093590;28;20059;-78
2023/01/28 05:15:56;;;;;;;8.00;4.55;;;;;;;-0.17;100.00;99751.66;5073595;28;20052;-79
2023/01/28 05:18:22;;;;;;;6.40;3.97;;;;;;;-0.13;100.00;99747.84;5087319;28;20510;-78
2023/01/28 05:20:49;;;;;;;9.65;4.80;;;;;;;-0.27;100.00;99721.16;5086732;28;20051;-79
2023/01/28 05:23:15;;;;;;;8.02;4.97;;;;;;;-0.26;100.00;99736.25;5087336;28;20059;-78
2023/01/28 05:25:42;;;;;;;7.15;4.45;;;;;;;-0.36;100.00;99714.66;5087084;28;20051;-78
2023/01/28 05:28:08;;;;;;;8.43;5.18;;;;;;;-0.16;100.00;99757.91;5087988;28;20127;-78
2023/01/28 05:30:37;;;;;;;8.63;4.90;;;;;;;-0.39;100.00;99738.91;5086756;28;20060;-78
2023/01/28 05:33:04;;;;;;;9.50;5.68;;;;;;;-0.38;100.00;99737.91;5091344;28;20062;-79
2023/01/28 05:35:30;;;;;;;6.63;4.63;;;;;;;-0.27;100.00;99745.22;5084546;28;20076;-78
2023/01/28 05:37:57;;;;;;;12.68;6.30;;;;;;;-0.13;100.00;99763.03;5093015;28;20052;-79
2023/01/28 05:40:23;;;;;;;9.80;5.45;;;;;;;-0.21;100.00;99758.16;5086914;28;20056;-78
2023/01/28 05:42:50;;;;;;;9.55;5.88;;;;;;;-0.25;100.00;99754.00;5078228;28;20048;-78
2023/01/28 05:45:16;;;;;;;10.00;5.32;;;;;;;-0.29;100.00;99734.63;5082159;28;20405;-78
2023/01/28 05:47:44;;;;;;;10.23;5.22;;;;;;;-0.25;100.00;99751.34;5082894;28;20074;-78
2023/01/28 05:50:13;;;;;;;11.57;5.05;;;;;;;-0.26;100.00;99752.28;5087258;28;20055;-79
2023/01/28 05:52:40;;;;;;;11.88;5.68;;;;;;;-0.33;100.00;99737.63;5091040;28;20055;-78
2023/01/28 05:55:07;;;;;;;10.45;5.22;;;;;;;-0.31;100.00;99739.22;5086608;28;20420;-79
2023/01/28 05:57:34;;;;;;;7.50;4.93;;;;;;;-0.26;100.00;99757.63;5088284;28;20106;-78
2023/01/28 06:00:00;;;;;;;11.30;5.10;;;;;;;-0.19;100.00;99769.63;5083567;28;20048;-78
2023/01/28 06:02:27;;;;;;;10.05;5.07;;;;;;;-0.28;100.00;99755.06;5080960;28;20044;-78
2023/01/28 06:04:54;;;;;;;7.35;4.85;;;;;;;-0.25;100.00;99746.00;5075795;28;20048;-78
2023/01/28 06:07:22;;;;;;;7.20;4.20;;;;;;;-0.25;100.00;99765.53;5082847;28;20194;-78
2023/01/28 06:09:49;;;;;;;10.60;5.90;;;;;;;-0.40;100.00;99764.72;5086391;28;20048;-79
2023/01/28 06:12:16;;;;;;;7.97;4.18;;;;;;;-0.40;100.00;99777.25;5085430;28;20044;-78
2023/01/28 06:14:42;;;;;;;8.05;5.20;;;;;;;-0.36;100.00;99773.44;5086635;28;20040;-79
2023/01/28 06:17:09;;;;;;;9.10;4.88;;;;;;;-0.41;100.00;99764.84;5079848;28;20053;-78
2023/01/28 06:19:35;;;;;;;10.10;4.97;;;;;;;-0.32;100.00;99771.41;5080526;28;20045;-79
2023/01/28 06:22:03;;;;;;;9.35;5.20;;;;;;;-0.24;100.00;99793.13;5089438;28;20483;-79
2023/01/28 06:24:30;;;;;;;7.43;5.03;;;;;;;-0.12;100.00;99792.34;5089061;28;20052;-79
2023/01/28 06:26:56;;;;;;;10.38;5.40;;;;;;;-0.12;100.00;99781.63;5087372;28;20044;-79
2023/01/28 06:29:23;;;;;;;11.30;5.32;;;;;;;-0.10;100.00;99800.25;5087121;28;20047;-78
2023/01/28 06:31:49;;;;;;;9.80;5.70;;;;;;;-0.22;100.00;99799.22;5089610;28;20048;-78
2023/01/28 06:34:16;;;;;;;9.27;5.90;;;;;;;-0.25;100.00;99792.28;5081947;28;20048;-78
2023/01/28 06:36:43;;;;;;;7.88;5.28;;;;;;;-0.36;100.00;99774.28;5086536;28;20067;-78
2023/01/28 06:39:11;;;;;;;10.88;5.78;;;;;;;-0.32;100.00;99790.09;5084474;28;20044;-78
2023/01/28 06:41:37;;;;;;;10.18;5.32;;;;;;;-0.45;100.00;99776.66;5083420;28;20067;-78
2023/01/28 06:44:04;;;;;;;11.18;5.88;;;;;;;-0.17;100.00;99809.63;5076128;28;20048;-79
2023/01/28 06:46:31;;;;;;;14.82;6.35;;;;;;;-0.26;100.00;99798.56;5083567;28;20432;-78
2023/01/28 06:48:57;;;;;;;10.20;5.97;;;;;;;-0.31;100.00;99783.81;5083202;28;20044;-78
2023/01/28 06:51:24;;;;;;;10.27;5.80;;;;;;;-0.29;100.00;99819.28;5079008;28;20514;-78
2023/01/28 06:53:50;;;;;;;10.05;6.00;;;;;;;-0.27;100.00;99814.69;5084522;28;20071;-79
2023/01/28 06:56:19;;;;;;;10.43;5.85;;;;;;;-0.24;100.00;99809.16;5089270;28;20453;-79
2023/01/28 06:58:45;;;;;;;12.05;6.32;;;;;;;-0.24;100.00;99818.03;5092793;28;20093;-78
2023/01/28 07:01:12;;;;;;;11.35;5.40;;;;;;;-0.12;100.00;99834.22;5090926;28;20040;-78
2023/01/28 07:03:38;;;;;;;10.32;5.28;;;;;;;-0.42;100.00;99793.38;5089575;28;20051;-79
2023/01/28 07:06:05;;;;;;;12.05;6.57;;;;;;;-0.28;100.00;99829.88;5084638;28;20044;-78
2023/01/28 07:08:32;;;;;;;13.15;6.47;;;;;;;-0.30;100.00;99825.59;5079143;28;20052;-78
2023/01/28 07:10:59;;;;;;;11.43;6.20;;;;;;;-0.40;100.00;99814.66;5084066;28;20052;-79
2023/01/28 07:13:27;;;;;;;12.07;6.90;;;;;;;-0.40;100.00;99812.81;5080775;28;20080;-79
2023/01/28 07:15:53;;;;;;;14.07;6.53;;;;;;;-0.31;100.00;99850.59;5085097;28;20047;-78
2023/01/28 07:18:20;;;;;;;14.75;7.63;;;;;;;-0.26;100.00;99848.47;5077030;28;20044;-78
2023/01/28 07:20:46;;;;;;;12.02;7.35;;;;;;;-0.36;100.00;99814.34;5083088;28;20048;-78
2023/01/28 07:23:13;;;;;;;15.15;7.70;;;;;;;-0.38;100.00;99815.41;5080495;28;20515;-78
2023/01/28 07:25:39;;;;;;;13.05;7.40;;;;;;;-0.20;100.00;99840.06;5090015;28;20051;-79
2023/01/28 07:28:06;;;;;;;16.30;7.28;;;;;;;-0.33;100.00;99826.66;5086344;28;20522;-78
2023/01/28 07:30:35;;;;;;;12.05;6.57;;;;;;;-0.16;100.00;99846.94;5080534;28;20048;-78
2023/01/28 07:33:02;;;;;;;15.80;7.20;;;;;;;-0.20;100.00;99850.75;5091377;28;20074;-79
2023/01/28 07:35:29;;;;;;;17.33;7.18;;;;;;;-0.27;100.00;99836.94;5091599;28;20075;-79
2023/01/28 07:37:57;;;;;;;12.20;6.35;;;;;;;-0.13;100.00;99853.91;5083358;28;20483;-78
2023/01/28 07:40:24;;;;;;;18.60;7.50;;;;;;;-0.19;100.00;99855.16;5084855;28;20095;-78
2023/01/28 07:42:51;;;;;;;13.90;7.80;;;;;;;-0.21;100.00;99859.72;5070119;28;20055;-79
2023/01/28 07:45:18;;;;;;;11.18;5.88;;;;;;;-0.20;100.00;99846.28;5086633;28;20051;-79
2023/01/28 07:47:53;;;;;;;11.30;6.35;;;;;;;-0.11;100.00;99857.31;5091594;28;20482;-79
2023/01/28 07:50:20;;;;;;;10.50;6.25;;;;;;;-0.22;100.00;99858.03;5091731;28;20056;-79
2023/01/28 07:52:46;;;;;;;14.77;8.25;;;;;;;-0.13;100.00;99857.44;5076794;28;20140;-78
2023/01/28 07:55:14;;;;;;;12.85;8.18;;;;;;;-0.08;100.00;99860.66;5091637;28;20082;-78
2023/01/28 07:57:49;;;;;;;11.48;6.63;;;;;;;-0.02;100.00;99862.06;5082937;28;20052;-78
2023/01/28 08:00:16;;;;;;;14.52;7.20;;;;;;;0.01;100.00;99856.53;5078801;28;20098;-78
2023/01/28 08:02:46;;;;;;;14.75;6.50;;;;;;;0.05;100.00;99867.88;5076832;28;20051;-78
2023/01/28 08:05:15;;;;;;;15.50;8.02;;;;;;;0.07;100.00;99871.31;5077443;28;20499;-78
2023/01/28 08:07:42;;;;;;;11.45;5.90;;;;;;;-0.05;100.00;99856.91;5082835;28;20048;-79
2023/01/28 08:10:10;;;;;;;18.38;6.90;;;;;;;-0.02;100.00;99860.25;5078426;28;20051;-79
2023/01/28 08:12:37;;;;;;;15.60;7.17;;;;;;;0.12;100.00;99880.75;5078484;28;20131;-79
2023/01/28 08:15:05;;;;;;;16.55;7.63;;;;;;;0.10;100.00;99863.09;5072902;28;20052;-79
2023/01/28 08:17:31;;;;;;;17.25;6.97;;;;;;;0.11;100.00;99868.31;5075357;28;20041;-79
2023/01/28 08:19:58;;;;;;;13.80;7.78;;;;;;;0.24;100.00;99883.56;5084929;28;20497;-78
2023/01/28 08:22:27;;;;;;;15.73;8.70;;;;;;;0.11;100.00;99870.16;5083920;28;20048;-79
2023/01/28 08:24:53;;;;;;;17.48;7.32;;;;;;;0.11;100.00;99878.19;5084429;28;20059;-78
2023/01/28 08:27:20;;;;;;;14.20;7.15;;;;;;;0.17;100.00;99886.63;5089194;28;20055;-79
2023/01/28 08:29:46;;;;;;;15.45;8.25;;;;;;;0.23;100.00;99887.22;5079202;28;20048;-79
2023/01/28 08:32:13;;;;;;;14.68;7.45;;;;;;;0.16;100.00;99876.88;5085683;28;20052;-79
2023/01/28 08:34:39;;;;;;;16.33;8.90;;;;;;;0.35;100.00;99897.94;5080148;28;20055;-78
2023/01/28 08:37:06;;;;;;;15.93;8.18;;;;;;;0.30;100.00;99881.34;5081690;28;20053;-79
2023/01/28 08:39:34;;;;;;;18.95;8.50;;;;;;;0.41;100.00;99882.47;5086937;28;20071;-78
2023/01/28 08:42:00;;;;;;;13.35;8.02;;;;;;;0.36;100.00;99890.75;5091115;28;20048;-79
2023/01/28 08:44:27;;;;;;;19.25;8.85;;;;;;;0.31;100.00;99866.16;5088521;28;20052;-78
2023/01/28 08:46:53;;;;;;;15.57;8.15;;;;;;;0.41;100.00;99869.09;5074700;28;20044;-79
2023/01/28 08:49:21;;;;;;;17.33;7.82;;;;;;;0.40;100.00;99860.19;5083635;28;20048;-78
2023/01/28 08:51:47;;;;;;;16.05;8.38;;;;;;;0.39;100.00;99871.84;5089756;28;20110;-79
2023/01/28 08:54:14;;;;;;;12.40;7.13;;;;;;;0.53;100.00;99892.34;5087358;28;20098;-79
2023/01/28 08:56:43;;;;;;;14.82;8.52;;;;;;;0.33;100.00;99862.44;5072509;28;20079;-78
2023/01/28 08:59:10;;;;;;;18.98;8.48;;;;;;;0.29;100.00;99852.03;5089287;28;20055;-78
2023/01/28 09:01:37;;;;;;;13.77;7.97;;;;;;;0.40;100.00;99875.38;5075564;28;20418;-78
2023/01/28 09:04:04;;;;;;;14.43;8.52;;;;;;;0.55;100.00;99884.22;5086378;28;20048;-78
2023/01/28 09:06:31;;;;;;;16.48;8.40;;;;;;;0.43;100.00;99867.16;5091760;28;20399;-78
2023/01/28 09:08:57;;;;;;;16.42;8.60;;;;;;;0.50;100.00;99885.38;5092156;28;20056;-78
2023/01/28 09:11:24;;;;;;;14.07;8.40;;;;;;;0.65;100.00;99887.97;5092184;28;20048;-78
2023/01/28 09:13:52;;;;;;;17.90;8.98;;;;;;;0.50;100.00;99871.13;5091482;28;20056;-78
2023/01/28 09:16:18;;;;;;;17.30;8.48;;;;;;;0.69;100.00;99905.53;5096015;28;20048;-78
2023/01/28 09:18:47;;;;;;;20.52;9.80;;;;;;;0.68;100.00;99906.50;5093411;28;20401;-79
2023/01/28 09:21:13;;;;;;;18.88;9.27;;;;;;;0.56;100.00;99885.91;5081634;28;20093;-79
2023/01/28 09:23:40;;;;;;;18.15;9.23;;;;;;;0.62;100.00;99915.78;5094825;28;20059;-78
2023/01/28 09:26:07;;;;;;;23.02;10.18;;;;;;;0.73;100.00;99919.56;5095473;28;20403;-78
2023/01/28 09:28:34;;;;;;;17.50;8.27;;;;;;;0.65;100.00;99909.38;5095336;28;20044;-79
2023/01/28 09:31:08;;;;;;;17.10;8.60;;;;;;;0.67;100.00;99910.13;5095256;28;20134;-78
2023/01/28 09:33:36;;;;;;;19.27;8.18;;;;;;;0.78;100.00;99922.78;5094914;28;20054;-78
2023/01/28 09:36:05;;;;;;;18.08;9.27;;;;;;;0.74;100.00;99930.19;5078160;28;20052;-78
2023/01/28 09:38:33;;;;;;;20.00;9.63;;;;;;;0.87;100.00;99928.38;5083451;28;20044;-78
2023/01/28 09:41:02;;;;;;;17.77;9.13;;;;;;;0.77;100.00;99921.94;5092635;28;20048;-79
2023/01/28 09:43:42;;;;;;;23.10;8.43;;;;;;;0.93;100.00;99919.06;5093700;28;20423;-78
2023/01/28 09:46:13;;;;;;;16.15;8.50;;;;;;;0.87;100.00;99920.34;5082655;28;20056;-78
2023/01/28 09:48:45;;;;;;;18.90;9.65;;;;;;;0.79;100.00;99919.16;5094397;28;20130;-79
2023/01/28 09:51:31;;;;;;;18.23;8.50;;;;;;;0.91;100.00;99921.00;5074549;28;20056;-78
2023/01/28 09:54:01;;;;;;;13.07;7.30;;;;;;;0.80;100.00;99921.72;5078654;28;20052;-78
2023/01/28 09:56:31;;;;;;;17.25;8.77;;;;;;;0.84;100.00;99908.97;5085534;28;20052;-78
2023/01/28 09:59:01;;;;;;;12.30;7.78;;;;;;;0.86;100.00;99932.00;5089404;28;20044;-79
2023/01/28 10:01:39;;;;;;;15.93;9.52;;;;;;;0.80;100.00;99929.75;5095047;28;20052;-78
2023/01/28 10:04:21;;;;;;;18.23;8.68;;;;;;;0.76;100.00;99935.44;5086507;28;20045;-78
2023/01/28 10:06:58;;;;;;;18.67;9.50;;;;;;;0.88;100.00;99942.63;5091253;28;20052;-78
2023/01/28 10:09:35;;;;;;;20.60;8.68;;;;;;;0.94;100.00;99944.03;5093270;28;20056;-78
2023/01/28 10:12:23;;;;;;;14.23;7.85;;;;;;;1.08;100.00;99940.41;5088721;28;20048;-78
2023/01/28 10:15:03;;;;;;;16.45;8.23;;;;;;;1.02;100.00;99939.88;5093130;28;20051;-78
2023/01/28 10:17:36;;;;;;;13.60;7.90;;;;;;;0.96;100.00;99934.06;5090888;28;20513;-78
2023/01/28 10:20:08;;;;;;;17.30;8.65;;;;;;;0.87;100.00;99906.97;5091031;28;20526;-78
2023/01/28 10:22:39;;;;;;;16.73;8.27;;;;;;;1.06;100.00;99927.97;5092111;28;20048;-79
2023/01/28 10:25:15;;;;;;;16.95;9.55;;;;;;;0.91;100.00;99902.25;5092427;28;20048;-79
2023/01/28 10:27:43;;;;;;;20.17;9.75;;;;;;;1.22;100.00;99930.47;5092024;28;20044;-79
2023/01/28 10:30:18;;;;;;;18.67;8.70;;;;;;;1.12;100.00;99912.47;5092629;28;20422;-79
2023/01/28 10:32:52;;;;;;;16.30;9.02;;;;;;;1.02;100.00;99894.34;5092551;28;20059;-79
2023/01/28 10:35:19;;;;;;;16.77;8.80;;;;;;;1.12;100.00;99920.50;5081320;28;20491;-79
2023/01/28 10:37:45;;;;;;;16.40;8.90;;;;;;;1.09;100.00;99912.66;5092586;28;20048;-78
2023/01/28 10:40:14;;;;;;;19.60;8.48;;;;;;;1.07;100.00;99894.03;5092914;28;20058;-79
2023/01/28 10:42:41;;;;;;;16.08;9.02;;;;;;;1.12;100.00;99899.06;5092502;28;20063;-78
2023/01/28 10:45:17;;;;;;;16.70;9.43;;;;;;;1.19;100.00;99917.28;5092845;28;20528;-78
2023/01/28 10:47:50;;;;;;;15.52;8.13;;;;;;;1.15;100.00;99909.56;5093092;28;20051;-79
2023/01/28 10:50:20;;;;;;;20.13;9.63;;;;;;;1.15;100.00;99904.22;5082987;28;20048;-79
2023/01/28 10:52:54;;;;;;;22.60;9.40;;;;;;;1.30;100.00;99913.84;5090685;28;20040;-79
2023/01/28 10:55:21;;;;;;;19.33;10.43;;;;;;;1.28;100.00;99918.47;5076078;28;20037;-79
2023/01/28 10:57:48;;;;;;;17.60;9.30;;;;;;;1.23;100.00;99925.94;5073849;28;20609;-79
2023/01/28 11:00:24;;;;;;;16.10;8.95;;;;;;;1.08;100.00;99913.63;5093063;28;20048;-78
2023/01/28 11:02:53;;;;;;;18.90;9.52;;;;;;;1.29;100.00;99927.34;5078534;28;20048;-78
2023/01/28 11:05:24;;;;;;;25.53;11.70;;;;;;;1.21;100.00;99927.88;5078407;28;20041;-78
2023/01/28 11:07:51;;;;;;;23.10;8.40;;;;;;;1.14;100.00;99899.81;5089936;28;20377;-78
2023/01/28 11:10:26;;;;;;;20.83;9.95;;;;;;;1.12;100.00;99901.75;5086515;28;20056;-78
2023/01/28 11:12:56;;;;;;;19.92;8.82;;;;;;;1.15;100.00;99910.41;5088842;28;20066;-78
2023/01/28 11:15:23;;;;;;;19.08;8.05;;;;;;;1.27;100.00;99926.59;5088874;28;20388;-79
2023/01/28 11:17:56;;;;;;;18.20;7.93;;;;;;;1.29;100.00;99924.66;5090561;28;20036;-78
2023/01/28 11:20:26;;;;;;;15.65;7.53;;;;;;;1.26;100.00;99924.88;5089108;28;20044;-78
2023/01/28 11:22:54;;;;;;;14.55;8.40;;;;;;;1.35;100.00;99927.75;5085016;28;20048;-78
2023/01/28 11:25:29;;;;;;;8.70;4.88;;;;;;;1.21;100.00;99939.44;5077103;28;20048;-78
2023/01/28 11:27:56;;;;;;;16.38;8.55;;;;;;;1.20;100.00;99936.88;5084779;28;20395;-78
2023/01/28 11:30:26;;;;;;;18.73;9.43;;;;;;;1.17;100.00;99921.88;5087600;28;20044;-78
2023/01/28 11:33:00;;;;;;;10.75;6.07;;;;;;;1.02;100.00;99920.25;5078109;28;20403;-78
2023/01/28 11:35:29;;;;;;;11.82;6.03;;;;;;;1.12;100.00;99936.56;5085137;28;20056;-80
2023/01/28 11:37:57;;;;;;;14.63;6.32;;;;;;;1.00;100.00;99928.38;5084496;28;20040;-80
2023/01/28 11:40:23;;;;;;;16.33;7.53;;;;;;;0.97;100.00;99928.59;5092975;28;20048;-80
2023/01/28 11:42:51;;;;;;;13.23;7.32;;;;;;;1.04;100.00;99937.94;5092526;28;20055;-79
2023/01/28 11:45:19;;;;;;;12.35;6.03;;;;;;;0.93;100.00;99935.13;5081105;28;20403;-79
2023/01/28 11:47:57;;;;;;;12.27;6.60;;;;;;;1.05;100.00;99941.47;5080066;28;20484;-80
2023/01/28 11:50:35;;;;;;;13.23;6.72;;;;;;;1.02;100.00;99930.97;5090607;28;20048;-78
2023/01/28 11:53:27;;;;;;;13.95;6.90;;;;;;;1.02;100.00;99922.94;5081997;28;20055;-78
2023/01/28 11:56:08;;;;;;;18.25;6.70;;;;;;;0.99;100.00;99940.06;5082861;28;20087;-78
2023/01/28 11:58:46;;;;;;;12.77;6.63;;;;;;;1.03;100.00;99936.22;5080286;28;20051;-79